sensor_id;sensor_type;location;lat;lon;timestamp;temperature;humidity
9410;DHT22;4744;52.576;13.568;2023-04-24T00:02:01;9.90;1.00
9410;DHT22;4744;52.576;13.568;2023-04-24T00:04:29;9.90;1.00
9410;DHT22;4744;52.576;13.568;2023-04-24T00:06:57;9.80;1.00
9410;DHT22;4744;52.576;13.568;2023-04-24T00:09:25;9.90;1.00
9410;DHT22;4744;52.576;13.568;2023-04-24T00:14:24;9.90;1.00
9410;DHT22;4744;52.576;13.568;2023-04-24T00:16:52;9.90;1.00
9410;DHT22;4744;52.576;13.568;2023-04-24T00:19:19;9.90;1.00
9410;DHT22;4744;52.576;13.568;2023-04-24T00:21:47;9.80;1.00
9410;DHT22;4744;52.576;13.568;2023-04-24T00:24:16;9.80;1.00
9410;DHT22;4744;52.576;13.568;2023-04-24T00:26:43;9.80;1.00
9410;DHT22;4744;52.576;13.568;2023-04-24T00:29:10;9.80;1.00
9410;DHT22;4744;52.576;13.568;2023-04-24T00:31:37;9.80;1.00
9410;DHT22;4744;52.576;13.568;2023-04-24T00:34:05;9.80;1.00
9410;DHT22;4744;52.576;13.568;2023-04-24T00:36:33;9.80;1.00
9410;DHT22;4744;52.576;13.568;2023-04-24T00:39:00;9.80;1.00
9410;DHT22;4744;52.576;13.568;2023-04-24T00:41:27;9.80;1.00
9410;DHT22;4744;52.576;13.568;2023-04-24T00:43:54;9.70;1.00
9410;DHT22;4744;52.576;13.568;2023-04-24T00:46:21;9.80;1.00
9410;DHT22;4744;52.576;13.568;2023-04-24T00:48:48;9.80;1.00
9410;DHT22;4744;52.576;13.568;2023-04-24T00:51:17;9.90;1.00
9410;DHT22;4744;52.576;13.568;2023-04-24T00:53:44;9.90;1.00
9410;DHT22;4744;52.576;13.568;2023-04-24T00:56:10;9.90;1.00
9410;DHT22;4744;52.576;13.568;2023-04-24T00:58:38;9.90;1.00
9410;DHT22;4744;52.576;13.568;2023-04-24T01:01:06;10.00;1.00
9410;DHT22;4744;52.576;13.568;2023-04-24T01:03:33;9.90;1.00
9410;DHT22;4744;52.576;13.568;2023-04-24T01:06:03;9.90;1.00
9410;DHT22;4744;52.576;13.568;2023-04-24T01:08:33;9.90;1.00
9410;DHT22;4744;52.576;13.568;2023-04-24T01:11:03;9.90;1.00
9410;DHT22;4744;52.576;13.568;2023-04-24T01:13:31;10.00;1.00
9410;DHT22;4744;52.576;13.568;2023-04-24T01:15:58;10.00;1.00
9410;DHT22;4744;52.576;13.568;2023-04-24T01:18:27;10.10;1.00
9410;DHT22;4744;52.576;13.568;2023-04-24T01:20:56;10.10;1.00
9410;DHT22;4744;52.576;13.568;2023-04-24T01:23:25;10.10;1.00
9410;DHT22;4744;52.576;13.568;2023-04-24T01:25:52;10.10;1.00
9410;DHT22;4744;52.576;13.568;2023-04-24T01:28:19;10.10;1.00
9410;DHT22;4744;52.576;13.568;2023-04-24T01:30:46;10.10;1.00
9410;DHT22;4744;52.576;13.568;2023-04-24T01:33:13;10.00;1.00
9410;DHT22;4744;52.576;13.568;2023-04-24T01:35:41;10.00;1.00
9410;DHT22;4744;52.576;13.568;2023-04-24T01:38:07;9.90;1.00
9410;DHT22;4744;52.576;13.568;2023-04-24T01:40:36;9.90;1.00
9410;DHT22;4744;52.576;13.568;2023-04-24T01:43:03;9.90;1.00
9410;DHT22;4744;52.576;13.568;2023-04-24T01:45:30;9.90;1.00
9410;DHT22;4744;52.576;13.568;2023-04-24T01:47:57;10.00;1.00
9410;DHT22;4744;52.576;13.568;2023-04-24T01:50:24;10.00;1.00
9410;DHT22;4744;52.576;13.568;2023-04-24T01:52:51;10.10;1.00
9410;DHT22;4744;52.576;13.568;2023-04-24T01:55:18;10.00;1.00
9410;DHT22;4744;52.576;13.568;2023-04-24T01:57:46;10.00;1.00
9410;DHT22;4744;52.576;13.568;2023-04-24T02:00:13;10.10;1.00
9410;DHT22;4744;52.576;13.568;2023-04-24T02:02:41;10.00;1.00
9410;DHT22;4744;52.576;13.568;2023-04-24T02:05:08;10.10;1.00
9410;DHT22;4744;52.576;13.568;2023-04-24T02:07:36;10.10;1.00
9410;DHT22;4744;52.576;13.568;2023-04-24T02:10:04;10.00;1.00
9410;DHT22;4744;52.576;13.568;2023-04-24T02:12:31;10.00;1.00
9410;DHT22;4744;52.576;13.568;2023-04-24T02:15:00;10.00;1.00
9410;DHT22;4744;52.576;13.568;2023-04-24T02:17:26;10.00;1.00
9410;DHT22;4744;52.576;13.568;2023-04-24T02:19:53;10.00;1.00
9410;DHT22;4744;52.576;13.568;2023-04-24T02:22:20;10.00;1.00
9410;DHT22;4744;52.576;13.568;2023-04-24T02:24:47;10.00;1.00
9410;DHT22;4744;52.576;13.568;2023-04-24T02:27:14;10.00;1.00
9410;DHT22;4744;52.576;13.568;2023-04-24T02:29:41;10.00;1.00
9410;DHT22;4744;52.576;13.568;2023-04-24T02:32:09;10.00;1.00
9410;DHT22;4744;52.576;13.568;2023-04-24T02:34:37;10.00;1.00
9410;DHT22;4744;52.576;13.568;2023-04-24T02:37:04;10.10;1.00
9410;DHT22;4744;52.576;13.568;2023-04-24T02:39:31;10.10;1.00
9410;DHT22;4744;52.576;13.568;2023-04-24T02:41:58;10.10;1.00
9410;DHT22;4744;52.576;13.568;2023-04-24T02:44:25;10.00;1.00
9410;DHT22;4744;52.576;13.568;2023-04-24T02:46:52;10.00;1.00
9410;DHT22;4744;52.576;13.568;2023-04-24T02:49:20;10.00;1.00
9410;DHT22;4744;52.576;13.568;2023-04-24T02:51:47;9.90;1.00
9410;DHT22;4744;52.576;13.568;2023-04-24T02:54:14;9.90;1.00
9410;DHT22;4744;52.576;13.568;2023-04-24T02:56:41;9.90;1.00
9410;DHT22;4744;52.576;13.568;2023-04-24T02:59:08;9.90;1.00
9410;DHT22;4744;52.576;13.568;2023-04-24T03:01:35;10.00;1.00
9410;DHT22;4744;52.576;13.568;2023-04-24T03:04:02;10.00;1.00
9410;DHT22;4744;52.576;13.568;2023-04-24T03:06:31;10.00;1.00
9410;DHT22;4744;52.576;13.568;2023-04-24T03:09:01;10.00;1.00
9410;DHT22;4744;52.576;13.568;2023-04-24T03:11:28;10.00;1.00
9410;DHT22;4744;52.576;13.568;2023-04-24T03:13:55;10.10;1.00
9410;DHT22;4744;52.576;13.568;2023-04-24T03:16:21;10.10;1.00
9410;DHT22;4744;52.576;13.568;2023-04-24T03:18:48;10.20;1.00
9410;DHT22;4744;52.576;13.568;2023-04-24T03:21:15;10.20;1.00
9410;DHT22;4744;52.576;13.568;2023-04-24T03:23:43;10.20;1.00
9410;DHT22;4744;52.576;13.568;2023-04-24T03:26:10;10.20;1.00
9410;DHT22;4744;52.576;13.568;2023-04-24T03:28:37;10.30;1.00
9410;DHT22;4744;52.576;13.568;2023-04-24T03:31:04;10.40;1.00
9410;DHT22;4744;52.576;13.568;2023-04-24T03:33:31;10.60;1.00
9410;DHT22;4744;52.576;13.568;2023-04-24T03:35:58;10.70;1.00
9410;DHT22;4744;52.576;13.568;2023-04-24T03:38:25;10.70;1.00
9410;DHT22;4744;52.576;13.568;2023-04-24T03:40:53;10.80;1.00
9410;DHT22;4744;52.576;13.568;2023-04-24T03:43:20;10.80;1.00
9410;DHT22;4744;52.576;13.568;2023-04-24T03:45:47;10.90;1.00
9410;DHT22;4744;52.576;13.568;2023-04-24T03:48:14;10.90;1.00
9410;DHT22;4744;52.576;13.568;2023-04-24T03:50:41;11.00;1.00
9410;DHT22;4744;52.576;13.568;2023-04-24T03:53:08;11.00;1.00
9410;DHT22;4744;52.576;13.568;2023-04-24T03:55:34;11.10;1.00
9410;DHT22;4744;52.576;13.568;2023-04-24T03:58:03;11.20;1.00
9410;DHT22;4744;52.576;13.568;2023-04-24T04:00:29;11.20;1.00
9410;DHT22;4744;52.576;13.568;2023-04-24T04:02:58;11.10;1.00
9410;DHT22;4744;52.576;13.568;2023-04-24T04:05:25;11.20;1.00
9410;DHT22;4744;52.576;13.568;2023-04-24T04:07:52;11.20;1.00
9410;DHT22;4744;52.576;13.568;2023-04-24T04:10:19;11.20;1.00
9410;DHT22;4744;52.576;13.568;2023-04-24T04:12:46;11.30;1.00
9410;DHT22;4744;52.576;13.568;2023-04-24T04:15:14;11.30;1.00
9410;DHT22;4744;52.576;13.568;2023-04-24T04:17:41;11.30;1.00
9410;DHT22;4744;52.576;13.568;2023-04-24T04:20:09;11.30;1.00
9410;DHT22;4744;52.576;13.568;2023-04-24T04:22:36;11.30;1.00
9410;DHT22;4744;52.576;13.568;2023-04-24T04:25:03;11.40;1.00
9410;DHT22;4744;52.576;13.568;2023-04-24T04:27:31;11.40;1.00
9410;DHT22;4744;52.576;13.568;2023-04-24T04:29:58;11.50;1.00
9410;DHT22;4744;52.576;13.568;2023-04-24T04:32:28;11.50;1.00
9410;DHT22;4744;52.576;13.568;2023-04-24T04:34:55;11.50;1.00
9410;DHT22;4744;52.576;13.568;2023-04-24T04:37:21;11.60;1.00
9410;DHT22;4744;52.576;13.568;2023-04-24T04:39:48;11.60;1.00
9410;DHT22;4744;52.576;13.568;2023-04-24T04:42:15;11.70;1.00
9410;DHT22;4744;52.576;13.568;2023-04-24T04:44:42;11.70;1.00
9410;DHT22;4744;52.576;13.568;2023-04-24T04:47:10;11.80;1.00
9410;DHT22;4744;52.576;13.568;2023-04-24T04:49:39;11.80;1.00
9410;DHT22;4744;52.576;13.568;2023-04-24T04:52:06;11.80;1.00
9410;DHT22;4744;52.576;13.568;2023-04-24T04:54:33;11.80;1.00
9410;DHT22;4744;52.576;13.568;2023-04-24T04:57:00;11.80;1.00
9410;DHT22;4744;52.576;13.568;2023-04-24T04:59:27;11.80;1.00
9410;DHT22;4744;52.576;13.568;2023-04-24T05:01:54;11.90;1.00
9410;DHT22;4744;52.576;13.568;2023-04-24T05:04:21;11.80;1.00
9410;DHT22;4744;52.576;13.568;2023-04-24T05:06:49;11.90;1.00
9410;DHT22;4744;52.576;13.568;2023-04-24T05:09:17;11.90;1.00
9410;DHT22;4744;52.576;13.568;2023-04-24T05:11:44;11.90;1.00
9410;DHT22;4744;52.576;13.568;2023-04-24T05:14:11;12.00;1.00
9410;DHT22;4744;52.576;13.568;2023-04-24T05:16:39;12.00;1.00
9410;DHT22;4744;52.576;13.568;2023-04-24T05:19:06;12.10;1.00
9410;DHT22;4744;52.576;13.568;2023-04-24T05:21:33;12.10;1.00
9410;DHT22;4744;52.576;13.568;2023-04-24T05:24:01;12.10;1.00
9410;DHT22;4744;52.576;13.568;2023-04-24T05:26:28;12.20;1.00
9410;DHT22;4744;52.576;13.568;2023-04-24T05:28:55;12.20;1.00
9410;DHT22;4744;52.576;13.568;2023-04-24T05:31:21;12.20;1.00
9410;DHT22;4744;52.576;13.568;2023-04-24T05:33:48;12.20;1.00
9410;DHT22;4744;52.576;13.568;2023-04-24T05:36:15;12.30;1.00
9410;DHT22;4744;52.576;13.568;2023-04-24T05:38:42;12.40;1.00
9410;DHT22;4744;52.576;13.568;2023-04-24T05:41:10;12.40;1.00
9410;DHT22;4744;52.576;13.568;2023-04-24T05:43:37;12.40;1.00
9410;DHT22;4744;52.576;13.568;2023-04-24T05:46:04;12.50;1.00
9410;DHT22;4744;52.576;13.568;2023-04-24T05:48:31;12.60;1.00
9410;DHT22;4744;52.576;13.568;2023-04-24T05:50:59;12.60;1.00
9410;DHT22;4744;52.576;13.568;2023-04-24T05:53:26;12.70;1.00
9410;DHT22;4744;52.576;13.568;2023-04-24T05:55:53;12.70;1.00
9410;DHT22;4744;52.576;13.568;2023-04-24T05:58:21;12.90;1.00
9410;DHT22;4744;52.576;13.568;2023-04-24T06:00:48;12.90;1.00
9410;DHT22;4744;52.576;13.568;2023-04-24T06:03:15;13.10;1.00
9410;DHT22;4744;52.576;13.568;2023-04-24T06:05:42;13.10;1.00
9410;DHT22;4744;52.576;13.568;2023-04-24T06:08:09;13.10;1.00
9410;DHT22;4744;52.576;13.568;2023-04-24T06:10:37;13.10;1.00
9410;DHT22;4744;52.576;13.568;2023-04-24T06:13:03;13.10;1.00
9410;DHT22;4744;52.576;13.568;2023-04-24T06:15:32;13.20;1.00
9410;DHT22;4744;52.576;13.568;2023-04-24T06:17:59;13.20;1.00
9410;DHT22;4744;52.576;13.568;2023-04-24T06:20:26;13.20;1.00
9410;DHT22;4744;52.576;13.568;2023-04-24T06:22:53;13.20;1.00
9410;DHT22;4744;52.576;13.568;2023-04-24T06:25:20;13.30;1.00
9410;DHT22;4744;52.576;13.568;2023-04-24T06:27:47;13.40;1.00
9410;DHT22;4744;52.576;13.568;2023-04-24T06:30:14;13.60;1.00
9410;DHT22;4744;52.576;13.568;2023-04-24T06:32:42;13.70;1.00
9410;DHT22;4744;52.576;13.568;2023-04-24T06:35:09;13.80;1.00
9410;DHT22;4744;52.576;13.568;2023-04-24T06:37:38;13.90;1.00
9410;DHT22;4744;52.576;13.568;2023-04-24T06:40:07;14.10;1.00
9410;DHT22;4744;52.576;13.568;2023-04-24T06:42:34;14.20;1.00
9410;DHT22;4744;52.576;13.568;2023-04-24T06:45:01;14.20;1.00
9410;DHT22;4744;52.576;13.568;2023-04-24T06:47:29;14.20;1.00
9410;DHT22;4744;52.576;13.568;2023-04-24T06:49:57;14.20;1.00
9410;DHT22;4744;52.576;13.568;2023-04-24T06:52:24;14.20;1.00
9410;DHT22;4744;52.576;13.568;2023-04-24T06:54:51;14.30;1.00
9410;DHT22;4744;52.576;13.568;2023-04-24T06:57:18;14.60;1.00
9410;DHT22;4744;52.576;13.568;2023-04-24T06:59:46;14.70;1.00
9410;DHT22;4744;52.576;13.568;2023-04-24T07:02:13;14.90;1.00
9410;DHT22;4744;52.576;13.568;2023-04-24T07:04:39;15.00;1.00
9410;DHT22;4744;52.576;13.568;2023-04-24T07:07:08;15.20;1.00
9410;DHT22;4744;52.576;13.568;2023-04-24T07:09:38;15.40;1.00
9410;DHT22;4744;52.576;13.568;2023-04-24T07:12:06;15.50;1.00
9410;DHT22;4744;52.576;13.568;2023-04-24T07:14:33;15.70;1.00
9410;DHT22;4744;52.576;13.568;2023-04-24T07:17:02;15.70;1.00
9410;DHT22;4744;52.576;13.568;2023-04-24T07:19:29;15.90;1.00
9410;DHT22;4744;52.576;13.568;2023-04-24T07:21:56;15.90;1.00
9410;DHT22;4744;52.576;13.568;2023-04-24T07:24:25;15.90;1.00
9410;DHT22;4744;52.576;13.568;2023-04-24T07:26:52;16.00;1.00
9410;DHT22;4744;52.576;13.568;2023-04-24T07:29:19;16.10;1.00
9410;DHT22;4744;52.576;13.568;2023-04-24T07:31:47;16.10;1.00
9410;DHT22;4744;52.576;13.568;2023-04-24T07:34:14;16.10;1.00
9410;DHT22;4744;52.576;13.568;2023-04-24T07:36:41;16.20;1.00
9410;DHT22;4744;52.576;13.568;2023-04-24T07:39:08;16.30;1.00
9410;DHT22;4744;52.576;13.568;2023-04-24T07:41:36;16.40;1.00
9410;DHT22;4744;52.576;13.568;2023-04-24T07:44:03;16.40;1.00
9410;DHT22;4744;52.576;13.568;2023-04-24T07:46:30;16.60;1.00
9410;DHT22;4744;52.576;13.568;2023-04-24T07:48:57;16.70;1.00
9410;DHT22;4744;52.576;13.568;2023-04-24T07:51:24;16.80;1.00
9410;DHT22;4744;52.576;13.568;2023-04-24T07:53:52;17.00;1.00
9410;DHT22;4744;52.576;13.568;2023-04-24T07:56:20;17.00;1.00
9410;DHT22;4744;52.576;13.568;2023-04-24T07:58:48;17.10;1.00
9410;DHT22;4744;52.576;13.568;2023-04-24T08:01:15;17.30;1.00
9410;DHT22;4744;52.576;13.568;2023-04-24T08:03:42;17.50;1.00
9410;DHT22;4744;52.576;13.568;2023-04-24T08:06:09;17.70;1.00
9410;DHT22;4744;52.576;13.568;2023-04-24T08:08:36;17.80;1.00
9410;DHT22;4744;52.576;13.568;2023-04-24T08:11:03;18.10;1.00
9410;DHT22;4744;52.576;13.568;2023-04-24T08:13:30;18.70;1.00
9410;DHT22;4744;52.576;13.568;2023-04-24T08:15:58;19.10;1.00
9410;DHT22;4744;52.576;13.568;2023-04-24T08:18:25;19.40;1.00
9410;DHT22;4744;52.576;13.568;2023-04-24T08:20:52;19.80;1.00
9410;DHT22;4744;52.576;13.568;2023-04-24T08:23:19;20.10;1.00
9410;DHT22;4744;52.576;13.568;2023-04-24T08:25:46;20.10;1.00
9410;DHT22;4744;52.576;13.568;2023-04-24T08:28:13;19.90;1.00
9410;DHT22;4744;52.576;13.568;2023-04-24T08:30:45;19.50;1.00
9410;DHT22;4744;52.576;13.568;2023-04-24T08:33:14;19.00;1.00
9410;DHT22;4744;52.576;13.568;2023-04-24T08:35:40;18.50;1.00
9410;DHT22;4744;52.576;13.568;2023-04-24T08:38:07;18.30;1.00
9410;DHT22;4744;52.576;13.568;2023-04-24T08:40:35;18.40;1.00
9410;DHT22;4744;52.576;13.568;2023-04-24T08:43:02;18.50;1.00
9410;DHT22;4744;52.576;13.568;2023-04-24T08:45:30;18.50;1.00
9410;DHT22;4744;52.576;13.568;2023-04-24T08:47:57;18.40;1.00
9410;DHT22;4744;52.576;13.568;2023-04-24T08:50:27;18.40;1.00
9410;DHT22;4744;52.576;13.568;2023-04-24T08:52:55;18.70;1.00
9410;DHT22;4744;52.576;13.568;2023-04-24T08:55:24;18.80;1.00
9410;DHT22;4744;52.576;13.568;2023-04-24T08:57:52;18.90;1.00
9410;DHT22;4744;52.576;13.568;2023-04-24T09:00:20;19.20;1.00
9410;DHT22;4744;52.576;13.568;2023-04-24T09:02:49;19.40;1.00
9410;DHT22;4744;52.576;13.568;2023-04-24T09:05:16;19.60;1.00
9410;DHT22;4744;52.576;13.568;2023-04-24T09:07:49;19.70;1.00
9410;DHT22;4744;52.576;13.568;2023-04-24T09:10:20;20.10;1.00
9410;DHT22;4744;52.576;13.568;2023-04-24T09:12:47;20.20;1.00
9410;DHT22;4744;52.576;13.568;2023-04-24T09:15:16;20.00;1.00
9410;DHT22;4744;52.576;13.568;2023-04-24T09:17:43;19.30;1.00
9410;DHT22;4744;52.576;13.568;2023-04-24T09:20:10;19.10;1.00
9410;DHT22;4744;52.576;13.568;2023-04-24T09:22:38;19.00;1.00
9410;DHT22;4744;52.576;13.568;2023-04-24T09:25:08;19.10;1.00
9410;DHT22;4744;52.576;13.568;2023-04-24T09:27:41;18.90;1.00
9410;DHT22;4744;52.576;13.568;2023-04-24T09:30:10;18.60;1.00
9410;DHT22;4744;52.576;13.568;2023-04-24T09:32:37;18.40;1.00
9410;DHT22;4744;52.576;13.568;2023-04-24T09:35:11;18.10;1.00
9410;DHT22;4744;52.576;13.568;2023-04-24T09:37:40;18.00;1.00
9410;DHT22;4744;52.576;13.568;2023-04-24T09:40:10;17.90;1.00
9410;DHT22;4744;52.576;13.568;2023-04-24T09:42:38;17.90;1.00
9410;DHT22;4744;52.576;13.568;2023-04-24T09:45:08;17.80;1.00
9410;DHT22;4744;52.576;13.568;2023-04-24T09:47:36;17.70;1.00
9410;DHT22;4744;52.576;13.568;2023-04-24T09:50:10;17.70;1.00
9410;DHT22;4744;52.576;13.568;2023-04-24T09:52:40;17.80;1.00
9410;DHT22;4744;52.576;13.568;2023-04-24T09:55:14;17.80;1.00
9410;DHT22;4744;52.576;13.568;2023-04-24T09:57:49;17.70;1.00
9410;DHT22;4744;52.576;13.568;2023-04-24T10:00:22;17.70;1.00
9410;DHT22;4744;52.576;13.568;2023-04-24T10:02:54;17.60;1.00
9410;DHT22;4744;52.576;13.568;2023-04-24T10:05:23;17.40;1.00
9410;DHT22;4744;52.576;13.568;2023-04-24T10:07:50;17.20;1.00
9410;DHT22;4744;52.576;13.568;2023-04-24T10:10:19;17.10;1.00
9410;DHT22;4744;52.576;13.568;2023-04-24T10:12:46;16.90;1.00
9410;DHT22;4744;52.576;13.568;2023-04-24T10:15:14;16.80;1.00
9410;DHT22;4744;52.576;13.568;2023-04-24T10:17:47;16.70;1.00
9410;DHT22;4744;52.576;13.568;2023-04-24T10:20:18;16.70;1.00
9410;DHT22;4744;52.576;13.568;2023-04-24T10:22:47;16.90;1.00
9410;DHT22;4744;52.576;13.568;2023-04-24T10:25:19;17.00;1.00
9410;DHT22;4744;52.576;13.568;2023-04-24T10:27:48;17.20;1.00
9410;DHT22;4744;52.576;13.568;2023-04-24T10:30:16;17.40;1.00
9410;DHT22;4744;52.576;13.568;2023-04-24T10:32:43;17.40;1.00
9410;DHT22;4744;52.576;13.568;2023-04-24T10:35:12;17.50;1.00
9410;DHT22;4744;52.576;13.568;2023-04-24T10:37:42;17.60;1.00
9410;DHT22;4744;52.576;13.568;2023-04-24T10:40:10;17.60;1.00
9410;DHT22;4744;52.576;13.568;2023-04-24T10:42:41;17.70;1.00
9410;DHT22;4744;52.576;13.568;2023-04-24T10:45:16;17.80;1.00
9410;DHT22;4744;52.576;13.568;2023-04-24T10:47:51;18.00;1.00
9410;DHT22;4744;52.576;13.568;2023-04-24T10:50:18;18.20;1.00
9410;DHT22;4744;52.576;13.568;2023-04-24T10:52:46;18.20;1.00
9410;DHT22;4744;52.576;13.568;2023-04-24T10:55:14;18.30;1.00
9410;DHT22;4744;52.576;13.568;2023-04-24T10:58:01;18.30;1.00
9410;DHT22;4744;52.576;13.568;2023-04-24T11:00:29;18.10;1.00
9410;DHT22;4744;52.576;13.568;2023-04-24T11:02:56;18.00;1.00
9410;DHT22;4744;52.576;13.568;2023-04-24T11:08:37;17.80;1.00
9410;DHT22;4744;52.576;13.568;2023-04-24T11:11:08;17.70;1.00
9410;DHT22;4744;52.576;13.568;2023-04-24T11:14:02;17.60;1.00
9410;DHT22;4744;52.576;13.568;2023-04-24T11:16:33;17.50;1.00
9410;DHT22;4744;52.576;13.568;2023-04-24T11:19:02;17.50;1.00
9410;DHT22;4744;52.576;13.568;2023-04-24T11:21:39;17.50;1.00
9410;DHT22;4744;52.576;13.568;2023-04-24T11:24:26;17.70;1.00
9410;DHT22;4744;52.576;13.568;2023-04-24T11:26:54;17.80;1.00
9410;DHT22;4744;52.576;13.568;2023-04-24T11:29:38;17.90;1.00
9410;DHT22;4744;52.576;13.568;2023-04-24T11:32:15;17.90;1.00
9410;DHT22;4744;52.576;13.568;2023-04-24T11:34:46;18.00;1.00
9410;DHT22;4744;52.576;13.568;2023-04-24T11:37:13;18.20;1.00
9410;DHT22;4744;52.576;13.568;2023-04-24T11:39:40;18.40;1.00
9410;DHT22;4744;52.576;13.568;2023-04-24T11:42:07;18.40;1.00
9410;DHT22;4744;52.576;13.568;2023-04-24T11:44:36;18.20;1.00
9410;DHT22;4744;52.576;13.568;2023-04-24T11:47:04;17.90;1.00
9410;DHT22;4744;52.576;13.568;2023-04-24T11:49:32;17.70;1.00
9410;DHT22;4744;52.576;13.568;2023-04-24T11:52:00;17.50;1.00
9410;DHT22;4744;52.576;13.568;2023-04-24T11:54:27;17.40;1.00
9410;DHT22;4744;52.576;13.568;2023-04-24T11:56:55;17.00;1.00
9410;DHT22;4744;52.576;13.568;2023-04-24T11:59:22;16.40;1.00
9410;DHT22;4744;52.576;13.568;2023-04-24T12:01:51;15.80;1.00
9410;DHT22;4744;52.576;13.568;2023-04-24T12:04:18;15.50;1.00
9410;DHT22;4744;52.576;13.568;2023-04-24T12:07:00;15.30;1.00
9410;DHT22;4744;52.576;13.568;2023-04-24T12:09:27;15.40;1.00
9410;DHT22;4744;52.576;13.568;2023-04-24T12:11:54;15.60;1.00
9410;DHT22;4744;52.576;13.568;2023-04-24T12:14:22;15.60;1.00
9410;DHT22;4744;52.576;13.568;2023-04-24T12:16:51;15.90;1.00
9410;DHT22;4744;52.576;13.568;2023-04-24T12:19:20;16.00;1.00
9410;DHT22;4744;52.576;13.568;2023-04-24T12:21:59;16.00;1.00
9410;DHT22;4744;52.576;13.568;2023-04-24T12:24:26;16.10;1.00
9410;DHT22;4744;52.576;13.568;2023-04-24T12:26:53;16.20;1.00
9410;DHT22;4744;52.576;13.568;2023-04-24T12:29:20;16.40;1.00
9410;DHT22;4744;52.576;13.568;2023-04-24T12:31:47;16.60;1.00
9410;DHT22;4744;52.576;13.568;2023-04-24T12:34:19;17.00;1.00
9410;DHT22;4744;52.576;13.568;2023-04-24T12:36:47;17.30;1.00
9410;DHT22;4744;52.576;13.568;2023-04-24T12:39:17;17.60;1.00
9410;DHT22;4744;52.576;13.568;2023-04-24T12:41:54;17.80;1.00
9410;DHT22;4744;52.576;13.568;2023-04-24T12:44:29;17.90;1.00
9410;DHT22;4744;52.576;13.568;2023-04-24T12:46:56;18.20;1.00
9410;DHT22;4744;52.576;13.568;2023-04-24T12:49:24;18.20;1.00
9410;DHT22;4744;52.576;13.568;2023-04-24T12:51:51;18.20;1.00
9410;DHT22;4744;52.576;13.568;2023-04-24T12:54:18;18.20;1.00
9410;DHT22;4744;52.576;13.568;2023-04-24T12:56:45;18.20;1.00
9410;DHT22;4744;52.576;13.568;2023-04-24T12:59:12;18.10;1.00
9410;DHT22;4744;52.576;13.568;2023-04-24T13:01:40;17.90;1.00
9410;DHT22;4744;52.576;13.568;2023-04-24T13:04:07;18.00;1.00
9410;DHT22;4744;52.576;13.568;2023-04-24T13:06:35;17.90;1.00
9410;DHT22;4744;52.576;13.568;2023-04-24T13:09:02;18.00;1.00
9410;DHT22;4744;52.576;13.568;2023-04-24T13:11:29;18.00;1.00
9410;DHT22;4744;52.576;13.568;2023-04-24T13:13:57;18.00;1.00
9410;DHT22;4744;52.576;13.568;2023-04-24T13:16:24;18.10;1.00
9410;DHT22;4744;52.576;13.568;2023-04-24T13:18:51;18.30;1.00
9410;DHT22;4744;52.576;13.568;2023-04-24T13:21:18;18.50;1.00
9410;DHT22;4744;52.576;13.568;2023-04-24T13:23:46;18.60;1.00
9410;DHT22;4744;52.576;13.568;2023-04-24T13:26:13;18.60;1.00
9410;DHT22;4744;52.576;13.568;2023-04-24T13:28:40;18.70;1.00
9410;DHT22;4744;52.576;13.568;2023-04-24T13:31:07;18.80;1.00
9410;DHT22;4744;52.576;13.568;2023-04-24T13:33:34;18.80;1.00
9410;DHT22;4744;52.576;13.568;2023-04-24T13:36:00;18.70;1.00
9410;DHT22;4744;52.576;13.568;2023-04-24T13:38:27;18.60;1.00
9410;DHT22;4744;52.576;13.568;2023-04-24T13:40:56;18.70;1.00
9410;DHT22;4744;52.576;13.568;2023-04-24T13:43:23;18.70;1.00
9410;DHT22;4744;52.576;13.568;2023-04-24T13:45:50;18.90;1.00
9410;DHT22;4744;52.576;13.568;2023-04-24T13:48:16;19.10;1.00
9410;DHT22;4744;52.576;13.568;2023-04-24T13:50:43;19.30;1.00
9410;DHT22;4744;52.576;13.568;2023-04-24T13:53:13;19.20;1.00
9410;DHT22;4744;52.576;13.568;2023-04-24T13:55:40;19.00;1.00
9410;DHT22;4744;52.576;13.568;2023-04-24T13:58:08;18.80;1.00
9410;DHT22;4744;52.576;13.568;2023-04-24T14:00:36;18.70;1.00
9410;DHT22;4744;52.576;13.568;2023-04-24T14:03:03;18.60;1.00
9410;DHT22;4744;52.576;13.568;2023-04-24T14:05:30;18.70;1.00
9410;DHT22;4744;52.576;13.568;2023-04-24T14:07:57;18.70;1.00
9410;DHT22;4744;52.576;13.568;2023-04-24T14:10:24;18.70;1.00
9410;DHT22;4744;52.576;13.568;2023-04-24T14:12:51;18.50;1.00
9410;DHT22;4744;52.576;13.568;2023-04-24T14:15:20;18.40;1.00
9410;DHT22;4744;52.576;13.568;2023-04-24T14:17:47;18.50;1.00
9410;DHT22;4744;52.576;13.568;2023-04-24T14:20:15;18.60;1.00
9410;DHT22;4744;52.576;13.568;2023-04-24T14:22:42;18.60;1.00
9410;DHT22;4744;52.576;13.568;2023-04-24T14:25:09;18.70;1.00
9410;DHT22;4744;52.576;13.568;2023-04-24T14:27:36;19.00;1.00
9410;DHT22;4744;52.576;13.568;2023-04-24T14:30:03;19.10;1.00
9410;DHT22;4744;52.576;13.568;2023-04-24T14:32:32;19.00;1.00
9410;DHT22;4744;52.576;13.568;2023-04-24T14:34:59;18.90;1.00
9410;DHT22;4744;52.576;13.568;2023-04-24T14:37:26;18.90;1.00
9410;DHT22;4744;52.576;13.568;2023-04-24T14:39:56;19.00;1.00
9410;DHT22;4744;52.576;13.568;2023-04-24T14:42:23;18.90;1.00
9410;DHT22;4744;52.576;13.568;2023-04-24T14:44:51;18.80;1.00
9410;DHT22;4744;52.576;13.568;2023-04-24T14:47:18;18.60;1.00
9410;DHT22;4744;52.576;13.568;2023-04-24T14:49:48;18.30;1.00
9410;DHT22;4744;52.576;13.568;2023-04-24T14:52:15;18.10;1.00
9410;DHT22;4744;52.576;13.568;2023-04-24T14:54:42;18.10;1.00
9410;DHT22;4744;52.576;13.568;2023-04-24T14:57:09;18.10;1.00
9410;DHT22;4744;52.576;13.568;2023-04-24T14:59:39;18.20;1.00
9410;DHT22;4744;52.576;13.568;2023-04-24T15:02:06;18.20;1.00
9410;DHT22;4744;52.576;13.568;2023-04-24T15:04:33;18.20;1.00
9410;DHT22;4744;52.576;13.568;2023-04-24T15:07:01;18.30;1.00
9410;DHT22;4744;52.576;13.568;2023-04-24T15:09:28;18.20;1.00
9410;DHT22;4744;52.576;13.568;2023-04-24T15:11:57;18.10;1.00
9410;DHT22;4744;52.576;13.568;2023-04-24T15:14:24;17.90;1.00
9410;DHT22;4744;52.576;13.568;2023-04-24T15:16:51;17.70;1.00
9410;DHT22;4744;52.576;13.568;2023-04-24T15:19:18;17.50;1.00
9410;DHT22;4744;52.576;13.568;2023-04-24T15:21:45;17.50;1.00
9410;DHT22;4744;52.576;13.568;2023-04-24T15:24:13;17.40;1.00
9410;DHT22;4744;52.576;13.568;2023-04-24T15:26:40;17.50;1.00
9410;DHT22;4744;52.576;13.568;2023-04-24T15:29:07;17.50;1.00
9410;DHT22;4744;52.576;13.568;2023-04-24T15:31:34;17.50;1.00
9410;DHT22;4744;52.576;13.568;2023-04-24T15:34:05;17.40;1.00
9410;DHT22;4744;52.576;13.568;2023-04-24T15:36:32;17.30;1.00
9410;DHT22;4744;52.576;13.568;2023-04-24T15:38:59;17.10;1.00
9410;DHT22;4744;52.576;13.568;2023-04-24T15:41:28;16.90;1.00
9410;DHT22;4744;52.576;13.568;2023-04-24T15:43:57;16.90;1.00
9410;DHT22;4744;52.576;13.568;2023-04-24T15:46:24;16.90;1.00
9410;DHT22;4744;52.576;13.568;2023-04-24T15:48:51;16.80;1.00
9410;DHT22;4744;52.576;13.568;2023-04-24T15:51:18;16.80;1.00
9410;DHT22;4744;52.576;13.568;2023-04-24T15:53:45;16.80;1.00
9410;DHT22;4744;52.576;13.568;2023-04-24T15:56:12;16.80;1.00
9410;DHT22;4744;52.576;13.568;2023-04-24T15:58:41;16.70;1.00
9410;DHT22;4744;52.576;13.568;2023-04-24T16:01:08;16.60;1.00
9410;DHT22;4744;52.576;13.568;2023-04-24T16:03:35;16.50;1.00
9410;DHT22;4744;52.576;13.568;2023-04-24T16:06:02;16.40;1.00
9410;DHT22;4744;52.576;13.568;2023-04-24T16:08:28;16.30;1.00
9410;DHT22;4744;52.576;13.568;2023-04-24T16:10:55;16.20;1.00
9410;DHT22;4744;52.576;13.568;2023-04-24T16:13:22;16.20;1.00